Terminal Aerodrome Forecast
Issued by NWS Lake Charles, LA

Home | Current Version | Previous Version | Text Only | Print | Product List | Glossary On
Versions: 1 2 3 4 5 6 7 8 9 10 11 12 13 14 15 16
505
FTUS44 KLCH 060049 AAA
TAFLFT
TAF AMD
KLFT 060049Z 0601/0624 00000KT 3SM BR VCSH OVC003
      TEMPO 0602/0606 1/2SM FG VV001
     FM060600 28008KT 2SM BR OVC003
     FM061500 30007KT P6SM BKN007
     FM061700 32007KT P6SM BKN025=

USA.gov is the U.S. government's official web portal to all federal, state and local government web resources and services.